This is the latest recevied weather packets stored in our database for station/object DO7ZT-13. If no packets are shown the sender has not sent any weather packets the latest 10 day(s).
| Time | Temp. | Humidity | Pressure | Rain* | Wind** | Luminosity | Snow |
|---|---|---|---|---|---|---|---|
| 1777532128 | 7.22° C | 40% | 1032.2 hPa | 0 mm | 0.89 m/s, 306° | - | - |
| 1777531815 | 7.22° C | 43% | 1032.2 hPa | 0 mm | 0.45 m/s, 300° | - | - |
| 1777531527 | 7.22° C | 42% | 1032.2 hPa | 0 mm | 0.89 m/s, 306° | - | - |
| 1777531215 | 7.22° C | 40% | 1032.2 hPa | 0 mm | 0.45 m/s, 319° | - | - |
| 1777530902 | 7.22° C | 40% | 1032.2 hPa | 0 mm | 0.45 m/s, 276° | - | - |
| 1777530615 | 7.22° C | 41% | 1032.1 hPa | 0 mm | 0.45 m/s, 276° | - | - |
| 1777530303 | 6.11° C | 41% | 1032.1 hPa | 0 mm | 0.89 m/s, 306° | - | - |
| 1777530027 | 6.11° C | 41% | 1032.1 hPa | 0 mm | 0.45 m/s, 296° | - | - |
| 1777529714 | 6.11° C | 43% | 1032 hPa | 0 mm | 0.89 m/s, 314° | - | - |
| 1777529427 | 6.11° C | 43% | 1032 hPa | 0 mm | 0.89 m/s, 318° | - | - |
| 1777529114 | 6.11° C | 42% | 1032 hPa | 0 mm | 0 m/s | - | - |
| 1777528827 | 6.11° C | 39% | 1031.8 hPa | 0 mm | 0.89 m/s, 126° | - | - |
| 1777528515 | 7.78° C | 38% | 1031.8 hPa | 0 mm | 0 m/s | - | - |
| 1777528227 | 7.78° C | 38% | 1031.8 hPa | 0 mm | 0 m/s | - | - |
| 1777527914 | 7.78° C | 39% | 1031.9 hPa | 0 mm | 0 m/s | - | - |
| 1777527627 | 6.11° C | 47% | 1031.9 hPa | 0 mm | 0 m/s | - | - |
| 1777527315 | 5° C | 53% | 1031.9 hPa | 0 mm | 0 m/s | - | - |
| 1777527027 | 5° C | 55% | 1031.8 hPa | 0 mm | 0 m/s | - | - |
| 1777526714 | 3.89° C | 54% | 1031.8 hPa | 0 mm | 0 m/s | - | - |
| 1777526427 | 3.89° C | 61% | 1031.8 hPa | 0 mm | 0 m/s | - | - |
| 1777526115 | 3.89° C | 53% | 1031.8 hPa | 0 mm | 0 m/s | - | - |
| 1777525827 | 2.78° C | 58% | 1031.8 hPa | 0 mm | 0 m/s | - | - |
| 1777525514 | 2.78° C | 56% | 1031.8 hPa | 0 mm | 0 m/s | - | - |
| 1777525202 | 2.78° C | 57% | 1031.7 hPa | 0 mm | 0 m/s | - | - |
| 1777524915 | 2.22° C | 55% | 1031.7 hPa | 0 mm | 0 m/s | - | - |
* Rain latest hour (hover to see other rain measurements)
** Current wind speed in m/s (hover to see current wind gust speed)